createdAt,value
2019-05-06T00:00:13.981Z,47.50
2019-05-06T00:02:43.465Z,47.50
2019-05-06T00:05:10.718Z,47.50
2019-05-06T00:07:38.169Z,47.60
2019-05-06T00:10:07.458Z,47.60
2019-05-06T00:12:34.921Z,47.60
2019-05-06T00:15:04.006Z,47.60
2019-05-06T00:17:31.578Z,47.70
2019-05-06T00:19:58.925Z,47.70
2019-05-06T00:22:26.357Z,47.80
2019-05-06T00:24:59.976Z,47.90
2019-05-06T00:27:37.071Z,47.90
2019-05-06T00:30:06.282Z,47.90
2019-05-06T00:32:34.837Z,47.80
2019-05-06T00:35:04.452Z,47.90
2019-05-06T00:37:31.644Z,47.90
2019-05-06T00:40:07.789Z,48.50
2019-05-06T00:42:38.543Z,48.60
2019-05-06T00:45:07.285Z,47.90
2019-05-06T00:47:34.740Z,48.00
2019-05-06T00:50:04.113Z,48.00
2019-05-06T00:52:31.459Z,48.10
2019-05-06T00:54:58.875Z,48.10
2019-05-06T00:57:46.997Z,48.10
2019-05-06T01:00:28.273Z,48.10
2019-05-06T01:02:55.653Z,48.20
2019-05-06T01:05:24.451Z,48.20
2019-05-06T01:07:52.087Z,48.20
2019-05-06T01:10:19.854Z,48.30
2019-05-06T01:12:56.633Z,48.20
2019-05-06T01:15:24.489Z,48.30
2019-05-06T01:17:53.756Z,48.20
2019-05-06T01:20:21.137Z,48.20
2019-05-06T01:22:48.567Z,48.30
2019-05-06T01:25:15.953Z,48.30
2019-05-06T01:27:44.439Z,48.30
2019-05-06T01:30:14.326Z,48.40
2019-05-06T01:32:43.449Z,48.30
2019-05-06T01:35:11.003Z,48.30
2019-05-06T01:37:39.406Z,48.30
2019-05-06T01:40:32.138Z,48.30
2019-05-06T01:43:06.454Z,48.30
2019-05-06T01:45:34.897Z,48.30
2019-05-06T01:48:04.034Z,48.30
2019-05-06T01:50:31.584Z,48.40
2019-05-06T01:52:58.935Z,48.40
2019-05-06T01:55:26.428Z,48.40
2019-05-06T01:57:54.595Z,48.40
2019-05-06T02:00:23.705Z,48.50
2019-05-06T02:02:51.294Z,48.50
2019-05-06T02:05:18.736Z,48.50
2019-05-06T02:07:46.062Z,48.60
2019-05-06T02:10:14.226Z,48.60
2019-05-06T02:12:41.839Z,48.70
2019-05-06T02:15:09.377Z,48.70
2019-05-06T02:17:36.716Z,48.70
2019-05-06T02:20:04.694Z,48.70
2019-05-06T02:22:43.806Z,48.70
2019-05-06T02:25:31.000Z,48.70
2019-05-06T02:27:58.370Z,48.70
2019-05-06T02:30:37.488Z,48.70
2019-05-06T02:33:15.359Z,48.70
2019-05-06T02:35:50.834Z,48.70
2019-05-06T02:38:39.125Z,48.70
2019-05-06T02:40:59.656Z,49.40
2019-05-06T02:43:27.126Z,48.70
2019-05-06T02:45:54.453Z,48.70
2019-05-06T02:48:35.669Z,48.70
2019-05-06T02:51:24.590Z,48.70
2019-05-06T02:53:53.826Z,48.70
2019-05-06T02:56:24.001Z,48.60
2019-05-06T02:58:53.447Z,48.60
2019-05-06T03:01:23.054Z,48.60
2019-05-06T03:03:49.464Z,48.60
2019-05-06T03:06:16.885Z,48.60
2019-05-06T03:08:44.220Z,48.60
2019-05-06T03:11:13.506Z,48.60
2019-05-06T03:13:43.804Z,48.50
2019-05-06T03:16:10.175Z,48.50
2019-05-06T03:18:37.597Z,48.50
2019-05-06T03:21:17.350Z,48.50
2019-05-06T03:23:48.560Z,49.10
2019-05-06T03:26:16.160Z,48.50
2019-05-06T03:28:44.217Z,48.40
2019-05-06T03:31:16.274Z,48.40
2019-05-06T03:34:27.819Z,48.40
2019-05-06T03:36:39.421Z,47.90
2019-05-06T03:39:03.018Z,48.40
2019-05-06T03:41:30.256Z,48.40
2019-05-06T03:43:57.924Z,48.40
2019-05-06T03:46:43.651Z,48.40
2019-05-06T03:49:13.454Z,48.40
2019-05-06T03:51:42.972Z,48.40
2019-05-06T03:54:12.660Z,48.40
2019-05-06T03:56:43.296Z,48.20
2019-05-06T03:59:13.299Z,48.20
2019-05-06T04:01:43.011Z,48.00
2019-05-06T04:04:12.607Z,48.00
2019-05-06T04:06:43.472Z,47.90
2019-05-06T04:09:12.993Z,47.80
2019-05-06T04:11:43.293Z,47.80
2019-05-06T04:14:13.686Z,47.80
2019-05-06T04:16:58.446Z,47.70
2019-05-06T04:19:33.105Z,47.80
2019-05-06T04:22:07.945Z,47.80
2019-05-06T04:25:10.399Z,47.80
2019-05-06T04:27:47.573Z,47.80
2019-05-06T04:30:15.721Z,47.80
2019-05-06T04:32:43.568Z,47.70
2019-05-06T04:35:13.634Z,47.70
2019-05-06T04:37:42.917Z,47.70
2019-05-06T04:40:13.014Z,47.60
2019-05-06T04:42:43.904Z,47.60
2019-05-06T04:45:09.834Z,47.60
2019-05-06T04:47:37.255Z,47.50
2019-05-06T04:50:06.100Z,47.50
2019-05-06T04:52:34.189Z,47.50
2019-05-06T04:55:03.469Z,47.40
2019-05-06T04:57:33.649Z,47.50
2019-05-06T05:00:03.810Z,47.30
2019-05-06T05:02:29.886Z,47.30
2019-05-06T05:04:57.338Z,47.30
2019-05-06T05:07:25.204Z,47.40
2019-05-06T05:10:03.224Z,47.40
2019-05-06T05:12:37.504Z,47.40
2019-05-06T05:15:18.718Z,47.30
2019-05-06T05:17:52.591Z,47.20
2019-05-06T05:20:35.901Z,47.20
2019-05-06T05:22:49.465Z,47.10
2019-05-06T05:25:17.040Z,47.20
2019-05-06T05:27:44.682Z,47.10
2019-05-06T05:30:12.580Z,47.10
2019-05-06T05:32:40.078Z,47.10
2019-05-06T05:35:07.600Z,47.10
2019-05-06T05:37:37.799Z,47.00
2019-05-06T05:40:05.497Z,47.00
2019-05-06T05:43:04.519Z,46.90
2019-05-06T05:45:32.723Z,47.90
2019-05-06T05:48:03.766Z,46.70
2019-05-06T05:50:35.734Z,46.60
2019-05-06T05:53:03.125Z,46.40
2019-05-06T05:55:32.870Z,46.50
2019-05-06T05:57:59.908Z,46.50
2019-05-06T06:00:29.198Z,46.40
2019-05-06T06:02:56.591Z,46.50
2019-05-06T06:05:24.186Z,46.40
2019-05-06T06:07:53.010Z,46.50
2019-05-06T06:10:43.032Z,46.40
2019-05-06T06:13:12.631Z,46.30
2019-05-06T06:15:48.120Z,46.40
2019-05-06T06:18:24.220Z,46.50
2019-05-06T06:21:27.049Z,46.50
2019-05-06T06:23:52.869Z,46.60
2019-05-06T06:26:22.212Z,46.60
2019-05-06T06:29:09.370Z,46.50
2019-05-06T06:31:47.926Z,46.60
2019-05-06T06:34:22.278Z,46.70
2019-05-06T06:37:15.189Z,46.80
2019-05-06T06:39:44.124Z,46.80
2019-05-06T06:42:12.659Z,46.90
2019-05-06T06:44:42.290Z,47.40
2019-05-06T06:47:09.535Z,46.50
2019-05-06T06:49:36.995Z,46.60
2019-05-06T06:52:10.936Z,46.20
2019-05-06T06:54:33.718Z,46.20
2019-05-06T06:57:23.751Z,46.10
2019-05-06T07:00:04.072Z,46.10
2019-05-06T07:02:37.315Z,46.00
2019-05-06T07:05:33.081Z,46.20
2019-05-06T07:08:02.193Z,46.20
2019-05-06T07:10:44.979Z,46.10
2019-05-06T07:13:13.675Z,45.80
2019-05-06T07:15:42.629Z,45.70
2019-05-06T07:18:10.212Z,45.70
2019-05-06T07:20:44.532Z,45.80
2019-05-06T07:23:24.198Z,45.80
2019-05-06T07:25:53.813Z,45.70
2019-05-06T07:28:22.772Z,45.60
2019-05-06T07:30:52.108Z,45.60
2019-05-06T07:33:19.523Z,45.60
2019-05-06T07:35:46.887Z,45.60
2019-05-06T07:38:14.347Z,45.40
2019-05-06T07:40:43.468Z,45.10
2019-05-06T07:43:29.234Z,45.20
2019-05-06T07:45:58.477Z,45.10
2019-05-06T07:48:26.415Z,45.00
2019-05-06T07:50:53.867Z,45.00
2019-05-06T07:53:22.357Z,44.60
2019-05-06T07:55:49.850Z,44.90
2019-05-06T07:58:17.350Z,45.10
2019-05-06T08:00:44.706Z,44.80
2019-05-06T08:03:14.033Z,44.70
2019-05-06T08:05:52.815Z,44.60
2019-05-06T08:08:12.837Z,44.40
2019-05-06T08:13:26.968Z,43.50
2019-05-06T08:15:54.435Z,43.10
2019-05-06T08:18:22.021Z,42.60
2019-05-06T08:20:51.866Z,42.30
2019-05-06T08:23:38.254Z,41.80
2019-05-06T08:26:12.041Z,41.40
2019-05-06T08:28:40.620Z,40.80
2019-05-06T08:31:04.349Z,40.90
2019-05-06T08:33:32.692Z,41.20
2019-05-06T08:36:11.553Z,40.60
2019-05-06T08:38:53.086Z,40.90
2019-05-06T08:41:22.556Z,41.00
2019-05-06T08:43:49.422Z,40.90
2019-05-06T08:46:16.841Z,40.80
2019-05-06T08:48:44.336Z,40.40
2019-05-06T08:51:18.530Z,40.00
2019-05-06T08:53:57.566Z,39.80
2019-05-06T08:56:25.030Z,39.50
2019-05-06T08:58:52.969Z,39.40
2019-05-06T09:01:29.471Z,39.20
2019-05-06T09:04:08.796Z,39.00
2019-05-06T09:06:30.230Z,38.80
2019-05-06T09:08:56.919Z,38.70
2019-05-06T09:11:25.872Z,38.40
2019-05-06T09:13:53.472Z,37.90
2019-05-06T09:16:22.320Z,37.50
2019-05-06T09:18:50.175Z,37.30
2019-05-06T09:21:17.497Z,37.20
2019-05-06T09:23:44.842Z,36.90
2019-05-06T09:27:06.467Z,35.80
2019-05-06T09:29:52.233Z,36.60
2019-05-06T09:32:36.801Z,36.80
2019-05-06T09:35:05.392Z,37.00
2019-05-06T09:37:32.864Z,37.10
2019-05-06T09:40:02.519Z,37.20
2019-05-06T09:42:29.585Z,37.20
2019-05-06T09:44:57.228Z,36.50
2019-05-06T09:47:58.005Z,36.80
2019-05-06T09:50:46.655Z,36.30
2019-05-06T09:53:18.406Z,36.50
2019-05-06T09:56:05.609Z,36.40
2019-05-06T09:58:34.305Z,36.60
2019-05-06T10:01:02.867Z,36.90
2019-05-06T10:03:32.265Z,37.80
2019-05-06T10:05:59.743Z,40.70
2019-05-06T10:08:27.295Z,43.80
2019-05-06T10:10:59.473Z,45.70
2019-05-06T10:13:23.902Z,44.60
2019-05-06T10:15:52.085Z,41.60
2019-05-06T10:18:19.608Z,37.20
2019-05-06T10:20:47.098Z,33.90
2019-05-06T10:23:14.640Z,30.90
2019-05-06T10:25:43.759Z,29.40
2019-05-06T10:28:33.212Z,28.50
2019-05-06T10:31:02.119Z,27.70
2019-05-06T10:33:32.408Z,27.60
2019-05-06T10:36:03.496Z,27.50
2019-05-06T10:38:46.461Z,27.40
2019-05-06T10:41:18.386Z,27.60
2019-05-06T10:44:06.891Z,27.80
2019-05-06T10:46:34.317Z,28.00
2019-05-06T10:49:02.547Z,28.30
2019-05-06T10:51:38.578Z,28.40
2019-05-06T10:54:05.996Z,28.50
2019-05-06T10:56:57.637Z,28.50
2019-05-06T10:59:25.098Z,28.80
2019-05-06T11:01:55.125Z,29.20
2019-05-06T11:04:22.610Z,29.40
2019-05-06T11:06:52.403Z,29.70
2019-05-06T11:09:19.257Z,29.90
2019-05-06T11:11:46.585Z,30.00
2019-05-06T11:14:14.037Z,30.00
2019-05-06T11:16:41.490Z,30.10
2019-05-06T11:19:08.882Z,30.00
2019-05-06T11:21:36.258Z,30.30
2019-05-06T11:24:06.229Z,30.60
2019-05-06T11:26:33.940Z,30.70
2019-05-06T11:29:06.012Z,30.50
2019-05-06T11:31:37.119Z,30.50
2019-05-06T11:34:24.740Z,31.20
2019-05-06T11:37:12.112Z,30.60
2019-05-06T11:39:39.676Z,30.60
2019-05-06T11:42:24.982Z,30.40
2019-05-06T11:44:36.410Z,30.30
2019-05-06T11:47:03.863Z,30.20
2019-05-06T11:49:32.643Z,30.30
2019-05-06T11:52:02.308Z,30.50
2019-05-06T11:54:29.538Z,30.60
2019-05-06T11:56:58.457Z,30.80
2019-05-06T11:59:26.272Z,30.90
2019-05-06T12:02:02.539Z,30.90
2019-05-06T12:04:32.726Z,31.10
2019-05-06T12:07:10.356Z,31.10
2019-05-06T12:09:29.301Z,31.10
2019-05-06T12:11:57.020Z,31.30
2019-05-06T12:14:24.544Z,31.10
2019-05-06T12:16:54.842Z,31.10
2019-05-06T12:19:22.577Z,31.20
2019-05-06T12:21:50.490Z,31.20
2019-05-06T12:24:18.004Z,31.40
2019-05-06T12:26:45.388Z,31.90
2019-05-06T12:29:12.896Z,31.00
2019-05-06T12:31:42.177Z,30.90
2019-05-06T12:34:11.569Z,30.80
2019-05-06T12:36:38.884Z,30.10
2019-05-06T12:39:23.118Z,30.60
2019-05-06T12:42:16.021Z,30.70
2019-05-06T12:45:18.266Z,30.90
2019-05-06T12:48:06.607Z,31.10
2019-05-06T12:50:34.129Z,31.10
2019-05-06T12:53:01.809Z,31.30
2019-05-06T12:55:29.326Z,31.20
2019-05-06T12:57:56.896Z,31.50
2019-05-06T13:00:24.691Z,31.80
2019-05-06T13:02:53.103Z,32.00
2019-05-06T13:05:20.680Z,32.00
2019-05-06T13:07:48.124Z,32.00
2019-05-06T13:10:18.657Z,32.10
2019-05-06T13:12:49.471Z,32.20
2019-05-06T13:15:17.046Z,32.10
2019-05-06T13:17:44.421Z,32.10
2019-05-06T13:20:14.586Z,32.00
2019-05-06T13:22:53.117Z,32.00
2019-05-06T13:26:52.818Z,31.90
2019-05-06T13:29:25.713Z,32.30
2019-05-06T13:31:53.317Z,32.40
2019-05-06T13:34:23.164Z,32.20
2019-05-06T13:36:52.506Z,32.10
2019-05-06T13:39:19.499Z,31.90
2019-05-06T13:41:46.878Z,32.10
2019-05-06T13:44:15.606Z,32.00
2019-05-06T13:46:47.764Z,32.10
2019-05-06T13:49:33.081Z,32.30
2019-05-06T13:52:04.368Z,32.30
2019-05-06T13:54:32.025Z,32.30
2019-05-06T13:56:59.518Z,32.40
2019-05-06T13:59:30.104Z,32.40
2019-05-06T14:02:25.120Z,32.60
2019-05-06T14:04:52.886Z,33.30
2019-05-06T14:07:20.538Z,32.70
2019-05-06T14:09:48.032Z,32.40
2019-05-06T14:12:15.571Z,32.20
2019-05-06T14:14:43.373Z,31.70
2019-05-06T14:17:12.734Z,31.40
2019-05-06T14:19:42.626Z,31.00
2019-05-06T14:22:09.692Z,30.90
2019-05-06T14:24:38.960Z,30.80
2019-05-06T14:27:09.218Z,30.90
2019-05-06T14:29:44.645Z,30.90
2019-05-06T14:32:14.725Z,30.90
2019-05-06T14:34:43.326Z,30.70
2019-05-06T14:37:11.047Z,30.50
2019-05-06T14:39:59.860Z,30.30
2019-05-06T14:42:27.300Z,29.80
2019-05-06T14:44:54.670Z,29.60
2019-05-06T14:47:33.368Z,29.50
2019-05-06T14:50:03.883Z,30.00
2019-05-06T14:52:33.391Z,29.30
2019-05-06T14:55:12.568Z,29.20
2019-05-06T14:57:40.004Z,29.20
2019-05-06T15:00:09.046Z,29.10
2019-05-06T15:02:36.545Z,29.10
2019-05-06T15:05:04.550Z,29.20
2019-05-06T15:07:32.950Z,29.20
2019-05-06T15:10:16.368Z,29.20
2019-05-06T15:12:29.885Z,29.10
2019-05-06T15:14:57.244Z,29.20
2019-05-06T15:17:24.658Z,29.20
2019-05-06T15:19:52.667Z,29.20
2019-05-06T15:22:22.468Z,29.10
2019-05-06T15:24:49.750Z,29.20
2019-05-06T15:27:17.260Z,29.30
2019-05-06T15:29:48.825Z,29.30
2019-05-06T15:32:24.127Z,29.40
2019-05-06T15:35:12.865Z,29.40
2019-05-06T15:37:50.008Z,29.40
2019-05-06T15:40:31.116Z,29.60
2019-05-06T15:42:47.141Z,29.80
2019-05-06T15:45:15.089Z,29.70
2019-05-06T15:47:42.874Z,29.70
2019-05-06T15:50:12.528Z,29.70
2019-05-06T15:52:39.746Z,29.30
2019-05-06T15:55:07.289Z,29.60
2019-05-06T15:57:34.811Z,29.80
2019-05-06T16:00:02.819Z,30.40
2019-05-06T16:02:30.279Z,29.90
2019-05-06T16:04:57.714Z,29.80
2019-05-06T16:07:26.239Z,29.80
2019-05-06T16:09:55.421Z,29.80
2019-05-06T16:12:23.114Z,29.80
2019-05-06T16:14:52.861Z,29.90
2019-05-06T16:17:19.871Z,30.00
2019-05-06T16:19:47.321Z,29.90
2019-05-06T16:22:14.810Z,29.90
2019-05-06T16:24:53.251Z,29.90
2019-05-06T16:27:22.834Z,30.00
2019-05-06T16:29:50.104Z,29.80
2019-05-06T16:32:17.644Z,29.80
2019-05-06T16:34:45.401Z,29.80
2019-05-06T16:37:12.802Z,29.80
2019-05-06T16:39:40.261Z,29.90
2019-05-06T16:42:08.557Z,30.00
2019-05-06T16:44:38.824Z,30.00
2019-05-06T16:47:06.311Z,30.00
2019-05-06T16:49:33.820Z,30.00
2019-05-06T16:52:02.534Z,30.10
2019-05-06T16:54:31.586Z,30.10
2019-05-06T16:57:04.216Z,30.10
2019-05-06T16:59:33.476Z,30.20
2019-05-06T17:02:05.096Z,30.20
2019-05-06T17:04:54.917Z,30.30
2019-05-06T17:07:22.453Z,30.50
2019-05-06T17:09:50.010Z,30.70
2019-05-06T17:12:17.410Z,30.90
2019-05-06T17:14:44.813Z,31.00
2019-05-06T17:17:12.341Z,31.20
2019-05-06T17:19:42.064Z,31.40
2019-05-06T17:22:09.181Z,31.40
2019-05-06T17:24:36.615Z,31.50
2019-05-06T17:27:04.026Z,31.50
2019-05-06T17:29:55.224Z,31.40
2019-05-06T17:32:29.250Z,31.70
2019-05-06T17:34:57.734Z,32.00
2019-05-06T17:37:47.975Z,32.20
2019-05-06T17:40:17.858Z,33.20
2019-05-06T17:42:45.322Z,32.80
2019-05-06T17:45:32.125Z,33.00
2019-05-06T17:48:12.841Z,33.20
2019-05-06T17:50:42.050Z,33.50
2019-05-06T17:53:09.721Z,33.60
2019-05-06T17:55:37.103Z,33.80
2019-05-06T17:58:04.581Z,34.10
2019-05-06T18:00:32.490Z,34.20
2019-05-06T18:03:02.355Z,34.50
2019-05-06T18:05:29.432Z,34.60
2019-05-06T18:07:56.921Z,34.70
2019-05-06T18:10:24.595Z,34.80
2019-05-06T18:12:54.502Z,34.90
2019-05-06T18:15:22.576Z,34.90
2019-05-06T18:17:52.342Z,35.00
2019-05-06T18:20:19.533Z,35.20
2019-05-06T18:22:47.234Z,35.30
2019-05-06T18:25:14.753Z,35.40
2019-05-06T18:27:43.022Z,35.50
2019-05-06T18:30:22.329Z,35.50
2019-05-06T18:32:42.341Z,35.60
2019-05-06T18:35:23.825Z,35.70
2019-05-06T18:37:52.185Z,35.70
2019-05-06T18:40:19.795Z,36.10
2019-05-06T18:42:47.331Z,35.70
2019-05-06T18:45:14.882Z,35.90
2019-05-06T18:47:42.297Z,36.00
2019-05-06T18:50:12.389Z,36.10
2019-05-06T18:52:39.607Z,36.10
2019-05-06T18:56:49.602Z,35.70
2019-05-06T18:59:17.050Z,36.20
2019-05-06T19:01:44.831Z,36.30
2019-05-06T19:04:27.851Z,36.50
2019-05-06T19:07:09.192Z,36.50
2019-05-06T19:09:36.477Z,36.50
2019-05-06T19:12:04.039Z,36.70
2019-05-06T19:14:32.957Z,36.80
2019-05-06T19:17:02.714Z,36.80
2019-05-06T19:19:34.239Z,36.80
2019-05-06T19:21:59.555Z,37.00
2019-05-06T19:24:27.478Z,36.90
2019-05-06T19:26:55.098Z,37.00
2019-05-06T19:29:23.161Z,37.10
2019-05-06T19:31:52.158Z,37.20
2019-05-06T19:35:24.755Z,37.40
2019-05-06T19:38:33.003Z,37.00
2019-05-06T19:41:08.013Z,38.80
2019-05-06T19:44:13.132Z,38.40
2019-05-06T19:51:33.695Z,36.40
2019-05-06T19:54:22.887Z,37.60
2019-05-06T19:57:25.915Z,38.20
2019-05-06T20:00:32.765Z,39.30
2019-05-06T20:06:58.302Z,37.50
2019-05-06T20:09:56.178Z,38.40
2019-05-06T20:12:58.338Z,38.60
2019-05-06T20:19:31.082Z,38.40
2019-05-06T20:21:55.885Z,38.40
2019-05-06T20:24:23.814Z,38.40
2019-05-06T20:26:52.670Z,38.90
2019-05-06T20:29:43.483Z,38.90
2019-05-06T20:32:18.583Z,38.70
2019-05-06T20:35:06.365Z,39.80
2019-05-06T20:37:34.153Z,38.70
2019-05-06T20:40:02.481Z,39.10
2019-05-06T20:42:50.185Z,39.00
2019-05-06T20:45:18.011Z,39.00
2019-05-06T20:47:54.160Z,39.30
2019-05-06T20:50:24.755Z,39.00
2019-05-06T20:53:06.801Z,39.50
2019-05-06T20:55:35.202Z,39.20
2019-05-06T20:58:02.729Z,39.40
2019-05-06T21:00:30.378Z,38.90
2019-05-06T21:02:57.751Z,38.90
2019-05-06T21:05:25.313Z,39.10
2019-05-06T21:07:52.882Z,39.20
2019-05-06T21:10:22.079Z,39.20
2019-05-06T21:12:49.614Z,39.30
2019-05-06T21:15:17.245Z,39.40
2019-05-06T21:17:44.843Z,39.40
2019-05-06T21:20:14.224Z,39.60
2019-05-06T21:22:42.948Z,39.70
2019-05-06T21:25:12.866Z,39.70
2019-05-06T21:27:42.299Z,39.60
2019-05-06T21:30:09.816Z,39.60
2019-05-06T21:32:37.182Z,39.80
2019-05-06T21:35:04.706Z,40.00
2019-05-06T21:37:32.157Z,40.00
2019-05-06T21:39:59.677Z,40.10
2019-05-06T21:42:27.181Z,40.30
2019-05-06T21:44:54.711Z,40.40
2019-05-06T21:47:22.126Z,40.30
2019-05-06T21:49:49.879Z,40.30
2019-05-06T21:52:17.311Z,40.60
2019-05-06T21:54:44.703Z,40.50
2019-05-06T21:57:12.309Z,40.50
2019-05-06T21:59:39.811Z,40.60
2019-05-06T22:02:08.645Z,40.60
2019-05-06T22:04:36.291Z,40.60
2019-05-06T22:07:03.771Z,40.80
2019-05-06T22:09:32.303Z,40.80
2019-05-06T22:11:59.790Z,40.70
2019-05-06T22:14:27.193Z,40.80
2019-05-06T22:16:54.722Z,40.90
2019-05-06T22:19:22.108Z,41.10
2019-05-06T22:22:03.188Z,41.10
2019-05-06T22:24:46.965Z,41.20
2019-05-06T22:27:14.944Z,41.20
2019-05-06T22:29:42.746Z,41.10
2019-05-06T22:32:11.900Z,41.20
2019-05-06T22:34:42.353Z,41.40
2019-05-06T22:37:09.454Z,41.30
2019-05-06T22:39:36.924Z,41.30
2019-05-06T22:42:04.245Z,41.40
2019-05-06T22:44:32.477Z,41.40
2019-05-06T22:47:00.052Z,41.50
2019-05-06T22:49:27.425Z,41.50
2019-05-06T22:51:54.781Z,41.50
2019-05-06T22:54:24.371Z,41.60
2019-05-06T22:56:52.383Z,41.70
2019-05-06T22:59:24.422Z,41.80
2019-05-06T23:02:07.338Z,41.70
2019-05-06T23:04:35.273Z,42.00
2019-05-06T23:07:04.683Z,41.80
2019-05-06T23:09:32.585Z,41.90
2019-05-06T23:12:00.090Z,42.00
2019-05-06T23:14:31.525Z,41.90
2019-05-06T23:16:56.766Z,41.90
2019-05-06T23:19:24.483Z,42.00
2019-05-06T23:21:53.295Z,41.90
2019-05-06T23:24:22.519Z,42.00
2019-05-06T23:26:52.741Z,42.00
2019-05-06T23:29:19.724Z,42.10
2019-05-06T23:31:47.048Z,41.90
2019-05-06T23:34:14.442Z,42.00
2019-05-06T23:37:27.474Z,43.40
2019-05-06T23:40:42.843Z,42.20
2019-05-06T23:43:46.637Z,42.00
2019-05-06T23:46:52.321Z,42.00
2019-05-06T23:49:56.443Z,42.00
2019-05-06T23:53:02.801Z,42.30
2019-05-06T23:56:06.178Z,42.30
2019-05-06T23:58:33.563Z,42.30
